Terminal Aerodrome Forecast
Issued by NWS Brownsville, TX

Home | Current Version | Previous Version | Text Only | Print | Product List | Glossary On
Versions: 1 2 3 4 5 6 7 8 9 10 11 12 13 14 15
000
FTUS44 KBRO 051726
TAFHRL
TAF
KHRL 051726Z 0518/0618 16019G25KT P6SM BKN035
     FM052200 15017G24KT P6SM SCT040
     FM060200 15013KT P6SM FEW030
     FM060400 15008KT P6SM BKN025=

USA.gov is the U.S. government's official web portal to all federal, state and local government web resources and services.